Incheon International Airport
RKSI : now visible

Airfield :











YOU CAN JOIN US ON...

 
LOGIN :

Register | Disclaimer

   EN    FR    IT 

 









Legend :    VFR   Marginal VFR   IFR   Intensive IFR   Very Intensive IFR
Visi :
Ceiling :
>= 8 km
>= 3000ft
5 to 8 km
1000 to 3000 ft
1500m to 5 km
500 to 1000 ft
800 to 1500m
200 to 500 ft
< 800m
< 200 ft
Symbols :   Thunderstorms  Fog  Heavy snow  Heavy precipitations  Wind > 20 kt






- Airport Elevation : 23 ft
- IATA code : ICN


RKSI - Incheon International

CURRENT METAR :
  • 222330Z 06004KT CAVOK 10/05 Q1026 NOSIG

EXPIRED METARs :
  • 222300Z 06006KT 9999 FEW040 BKN180 08/04 Q1026 NOSIG
  • 222230Z 06006KT 9999 FEW040 SCT180 08/03 Q1026 NOSIG
  • 222200Z 06007KT 9999 FEW040 BKN180 09/04 Q1025 NOSIG
  • 222130Z 07004KT 9999 SCT040 08/03 Q1026 NOSIG
  • 222100Z 07006KT 9999 SCT040 09/04 Q1026 NOSIG

TAF TAF RKSI
Valid from the 23 at 00:00 until the 24 at 06:00 UTC


222300Z 2300/2406 12005KT 9999 FEW030 BKN180 TX16/2305Z TN06/2320Z TX15/2405Z
TEMPO 2316/2320 06005KT 4200 BR
BECMG 2403/2404 18010KT
BECMG 2405/2406 BKN030 OVC100



MET'MAP, your aeronautical weather chart ! - Copyright ORBIFLY December 2007 - Disclaimer

ORBIFLY MET'MAP TEAM :

Programming & Development : Alexandra Zaïnal
Concept & Development : Baudouin d'Aumeries
Co-Development & Prog : Marc-Olivier Méhu
Technical & hardware support : Manuel Goepfert

Contact : metmap@orbifly.com




SOURCES & CREDITS :

   NOAA       Earth
Advisory